Terminal Aerodrome Forecast
Issued by NWS

Home | Current Version | Previous Version | Text Only | Print | Product List | Glossary On
Versions: 1 2 3 4 5 6 7 8 9 10 11 12 13 14 15 16 17 18 19 20 21 22
000
FTUS43 KDVN 261316 AAB
TAFBRL
TAF AMD
KBRL 261316Z 2613/2712 23010G20KT 1SM -RA BR SCT008 OVC035
      TEMPO 2613/2615 3SM -RA BR BKN015
     FM261500 20011KT P6SM SCT015 BKN035
     FM261800 22013G19KT P6SM BKN040
     FM270100 23006KT P6SM SCT050 BKN250=

USA.gov is the U.S. government's official web portal to all federal, state and local government web resources and services.